Time;durP1;ratioP1;P1;durP2;ratioP2;P2;SDS_P1;SDS_P2;PMS_P1;PMS_P2;Temp;Humidity;BMP_temperature;BMP_pressure;BME280_temperature;BME280_humidity;BME280_pressure;Samples;Min_cycle;Max_cycle;Signal;HPM_P1;HPM_P2
2022/03/25 00:01:18;;;;;;;21.80;10.27;;;;;;;;;;4929062;29;20044;-67
2022/03/25 00:03:44;;;;;;;23.83;9.98;;;;;;;;;;4927713;29;20051;-69
2022/03/25 00:06:10;;;;;;;21.20;10.40;;;;;;;;;;4931007;29;20058;-67
2022/03/25 00:08:36;;;;;;;24.17;10.05;;;;;;;;;;4926495;29;20079;-69
2022/03/25 00:11:02;;;;;;;21.95;10.10;;;;;;;;;;4930552;29;20051;-68
2022/03/25 00:13:28;;;;;;;14.98;9.55;;;;;;;;;;4929042;29;20157;-67
2022/03/25 00:15:54;;;;;;;21.75;10.35;;;;;;;;;;4927346;29;20087;-68
2022/03/25 00:18:20;;;;;;;20.33;9.60;;;;;;;;;;4929010;29;20230;-67
2022/03/25 00:20:48;;;;;;;22.92;10.00;;;;;;;;;;4930179;29;20202;-67
2022/03/25 00:23:15;;;;;;;23.60;10.63;;;;;;;;;;4926969;29;20055;-68
2022/03/25 00:25:42;;;;;;;21.92;10.63;;;;;;;;;;4926809;29;20618;-65
2022/03/25 00:28:08;;;;;;;15.32;9.32;;;;;;;;;;4928872;29;20066;-67
2022/03/25 00:30:34;;;;;;;23.35;10.40;;;;;;;;;;4926049;29;20498;-65
2022/03/25 00:33:00;;;;;;;19.70;10.23;;;;;;;;;;4927183;29;20575;-64
2022/03/25 00:35:26;;;;;;;22.08;9.40;;;;;;;;;;4908806;29;20445;-66
2022/03/25 00:37:52;;;;;;;24.48;9.52;;;;;;;;;;4918248;29;20207;-66
2022/03/25 00:40:19;;;;;;;23.38;10.15;;;;;;;;;;4929140;29;20065;-68
2022/03/25 00:42:47;;;;;;;24.88;10.45;;;;;;;;;;4926452;29;20498;-65
2022/03/25 00:45:13;;;;;;;19.40;9.95;;;;;;;;;;4926665;29;20478;-66
2022/03/25 00:47:39;;;;;;;24.98;9.98;;;;;;;;;;4925560;29;20070;-66
2022/03/25 00:50:06;;;;;;;25.33;9.55;;;;;;;;;;4931124;29;20048;-66
2022/03/25 00:52:32;;;;;;;26.70;10.23;;;;;;;;;;4927176;29;20044;-66
2022/03/25 00:54:58;;;;;;;20.05;9.90;;;;;;;;;;4928284;29;20109;-67
2022/03/25 00:57:24;;;;;;;22.02;9.75;;;;;;;;;;4930213;29;20052;-66
2022/03/25 00:59:50;;;;;;;19.55;9.57;;;;;;;;;;4930757;29;20048;-66
2022/03/25 01:02:16;;;;;;;21.80;9.63;;;;;;;;;;4928144;29;20047;-68
2022/03/25 01:04:42;;;;;;;20.98;10.23;;;;;;;;;;4929297;29;20067;-64
2022/03/25 01:07:08;;;;;;;22.60;9.93;;;;;;;;;;4927918;29;20619;-64
2022/03/25 01:09:35;;;;;;;30.02;10.57;;;;;;;;;;4927268;29;20055;-65
2022/03/25 01:12:01;;;;;;;26.58;10.20;;;;;;;;;;4928369;29;20047;-67
2022/03/25 01:14:27;;;;;;;24.90;9.88;;;;;;;;;;4912396;29;20053;-65
2022/03/25 01:16:53;;;;;;;23.27;10.18;;;;;;;;;;4928075;29;20840;-67
2022/03/25 01:19:20;;;;;;;25.30;10.13;;;;;;;;;;4930177;29;20102;-65
2022/03/25 01:21:47;;;;;;;25.77;10.38;;;;;;;;;;4926742;29;20425;-65
2022/03/25 01:24:13;;;;;;;24.00;10.43;;;;;;;;;;4929698;29;20048;-67
2022/03/25 01:26:39;;;;;;;21.63;10.02;;;;;;;;;;4926018;29;20063;-65
2022/03/25 01:29:06;;;;;;;27.05;11.13;;;;;;;;;;4928829;29;20043;-66
2022/03/25 01:31:32;;;;;;;32.47;10.82;;;;;;;;;;4925610;29;20146;-66
2022/03/25 01:33:59;;;;;;;32.45;11.00;;;;;;;;;;4927473;29;20494;-66
2022/03/25 01:36:25;;;;;;;26.73;10.88;;;;;;;;;;4927283;29;20132;-66
2022/03/25 01:38:51;;;;;;;27.17;10.25;;;;;;;;;;4927668;29;20143;-65
2022/03/25 01:41:18;;;;;;;28.38;10.60;;;;;;;;;;4927898;29;20074;-64
2022/03/25 01:43:52;;;;;;;29.17;10.55;;;;;;;;;;4923094;29;20040;-66
2022/03/25 01:46:18;;;;;;;;;;;;;;;;;;4927440;29;20056;-66
2022/03/25 01:48:44;;;;;;;27.48;12.45;;;;;;;;;;4927243;29;20373;-66
2022/03/25 01:51:13;;;;;;;26.65;10.18;;;;;;;;;;4927682;29;20051;-66
2022/03/25 01:53:39;;;;;;;31.73;10.70;;;;;;;;;;4931596;29;20860;-66
2022/03/25 01:56:05;;;;;;;24.65;10.70;;;;;;;;;;4930528;29;20052;-64
2022/03/25 01:58:32;;;;;;;35.60;11.07;;;;;;;;;;4930066;29;20054;-65
2022/03/25 02:01:02;;;;;;;27.50;10.75;;;;;;;;;;4916761;29;20039;-66
2022/03/25 02:03:28;;;;;;;30.85;11.60;;;;;;;;;;4924491;29;20078;-65
2022/03/25 02:05:54;;;;;;;26.85;10.95;;;;;;;;;;4930594;29;20047;-65
2022/03/25 02:08:20;;;;;;;23.17;10.82;;;;;;;;;;4930143;29;20047;-67
2022/03/25 02:10:46;;;;;;;30.73;11.25;;;;;;;;;;4927253;29;20059;-64
2022/03/25 02:13:12;;;;;;;28.15;11.25;;;;;;;;;;4930665;29;20583;-70
2022/03/25 02:15:41;;;;;;;32.65;11.25;;;;;;;;;;4913041;29;20091;-65
2022/03/25 02:18:09;;;;;;;30.98;11.13;;;;;;;;;;4930540;29;20552;-68
2022/03/25 02:20:37;;;;;;;31.75;11.93;;;;;;;;;;4930780;29;20142;-69
2022/03/25 02:23:05;;;;;;;33.50;10.85;;;;;;;;;;4927356;29;20051;-67
2022/03/25 02:25:31;;;;;;;28.00;12.00;;;;;;;;;;4912853;29;20051;-64
2022/03/25 02:27:59;;;;;;;26.17;12.35;;;;;;;;;;4923149;29;20040;-66
2022/03/25 02:30:26;;;;;;;26.17;12.55;;;;;;;;;;4925979;29;20056;-65
2022/03/25 02:32:57;;;;;;;35.05;12.07;;;;;;;;;;4925778;29;20134;-65
2022/03/25 02:35:41;;;;;;;28.92;12.70;;;;;;;;;;4925523;29;20044;-65
2022/03/25 02:38:08;;;;;;;32.40;12.93;;;;;;;;;;4927757;29;20059;-70
2022/03/25 02:40:34;;;;;;;28.90;12.98;;;;;;;;;;4924438;29;20534;-66
2022/03/25 02:43:00;;;;;;;33.70;12.38;;;;;;;;;;4919983;29;20048;-69
2022/03/25 02:45:26;;;;;;;30.15;12.07;;;;;;;;;;4911686;29;20056;-64
2022/03/25 02:47:52;;;;;;;33.38;13.63;;;;;;;;;;4928828;29;20051;-65
2022/03/25 02:50:18;;;;;;;34.10;13.48;;;;;;;;;;4927734;29;20501;-64
2022/03/25 02:52:44;;;;;;;30.35;12.18;;;;;;;;;;4919902;29;20051;-64
2022/03/25 02:55:10;;;;;;;39.38;13.20;;;;;;;;;;4926408;29;20055;-65
2022/03/25 02:57:36;;;;;;;28.90;12.55;;;;;;;;;;4928784;29;20513;-64
2022/03/25 03:00:10;;;;;;;28.92;13.38;;;;;;;;;;4925242;29;20063;-65
2022/03/25 03:02:37;;;;;;;30.25;12.88;;;;;;;;;;4923785;29;20063;-66
2022/03/25 03:05:07;;;;;;;28.77;13.15;;;;;;;;;;4910677;29;20060;-66
2022/03/25 03:07:35;;;;;;;34.95;13.20;;;;;;;;;;4929503;29;20126;-66
2022/03/25 03:10:03;;;;;;;30.15;13.10;;;;;;;;;;4927627;29;20528;-65
2022/03/25 03:12:29;;;;;;;31.45;14.05;;;;;;;;;;4930594;29;20069;-64
2022/03/25 03:14:57;;;;;;;35.25;13.27;;;;;;;;;;4927878;29;20493;-64
2022/03/25 03:17:23;;;;;;;33.30;13.93;;;;;;;;;;4927294;29;20060;-66
2022/03/25 03:19:50;;;;;;;29.63;13.40;;;;;;;;;;4922954;29;20044;-66
2022/03/25 03:22:17;;;;;;;25.40;13.07;;;;;;;;;;4924401;29;20136;-65
2022/03/25 03:24:44;;;;;;;35.30;14.18;;;;;;;;;;4924096;29;20487;-67
2022/03/25 03:27:11;;;;;;;26.98;13.75;;;;;;;;;;4929685;29;20390;-65
2022/03/25 03:29:37;;;;;;;28.63;14.23;;;;;;;;;;4928574;29;20043;-65
2022/03/25 03:32:04;;;;;;;31.33;13.50;;;;;;;;;;4928055;29;20410;-66
2022/03/25 03:34:31;;;;;;;27.20;13.00;;;;;;;;;;4927931;29;20054;-66
2022/03/25 03:36:57;;;;;;;29.42;14.45;;;;;;;;;;4929092;29;20164;-67
2022/03/25 03:39:23;;;;;;;26.55;13.63;;;;;;;;;;4930026;29;20139;-70
2022/03/25 03:41:49;;;;;;;27.35;12.93;;;;;;;;;;4927975;29;20125;-65
2022/03/25 03:44:15;;;;;;;31.90;14.48;;;;;;;;;;4931795;29;20047;-65
2022/03/25 03:46:41;;;;;;;28.92;13.65;;;;;;;;;;4927945;29;20094;-67
2022/03/25 03:49:07;;;;;;;31.65;14.32;;;;;;;;;;4930454;29;20047;-66
2022/03/25 03:51:33;;;;;;;30.58;13.60;;;;;;;;;;4927331;29;20115;-65
2022/03/25 03:54:00;;;;;;;26.60;13.48;;;;;;;;;;4927591;29;20546;-65
2022/03/25 03:56:27;;;;;;;28.90;13.50;;;;;;;;;;4928519;29;20056;-65
2022/03/25 03:58:53;;;;;;;31.95;13.77;;;;;;;;;;4930736;29;20043;-67
2022/03/25 04:01:19;;;;;;;26.38;13.27;;;;;;;;;;4926739;29;20534;-70
2022/03/25 04:03:45;;;;;;;27.55;13.88;;;;;;;;;;4928048;29;20505;-65
2022/03/25 04:06:12;;;;;;;30.83;12.93;;;;;;;;;;4929405;29;20319;-65
2022/03/25 04:08:39;;;;;;;35.58;14.68;;;;;;;;;;4930189;29;20043;-66
2022/03/25 04:11:05;;;;;;;32.13;13.18;;;;;;;;;;4929400;29;20210;-66
2022/03/25 04:13:31;;;;;;;27.10;13.20;;;;;;;;;;4928195;29;20434;-65
2022/03/25 04:15:56;;;;;;;31.35;13.20;;;;;;;;;;4924059;29;20052;-67
2022/03/25 04:18:23;;;;;;;29.75;12.82;;;;;;;;;;4927729;29;20198;-68
2022/03/25 04:20:52;;;;;;;27.85;12.57;;;;;;;;;;4924994;29;20428;-66
2022/03/25 04:23:17;;;;;;;28.83;13.10;;;;;;;;;;4928808;29;20047;-65
2022/03/25 04:25:45;;;;;;;22.90;12.65;;;;;;;;;;4909162;29;20066;-65
2022/03/25 04:28:11;;;;;;;27.17;13.57;;;;;;;;;;4928647;29;20107;-68
2022/03/25 04:30:37;;;;;;;24.48;12.57;;;;;;;;;;4910269;29;20050;-65
2022/03/25 04:33:04;;;;;;;27.30;12.48;;;;;;;;;;4928317;29;20144;-64
2022/03/25 04:35:30;;;;;;;23.35;12.23;;;;;;;;;;4927108;29;20047;-65
2022/03/25 04:37:57;;;;;;;25.88;12.43;;;;;;;;;;4918390;29;20060;-66
2022/03/25 04:40:25;;;;;;;27.80;12.10;;;;;;;;;;4927850;29;20055;-66
2022/03/25 04:42:53;;;;;;;29.98;12.90;;;;;;;;;;4925338;29;20059;-66
2022/03/25 04:45:22;;;;;;;26.58;13.10;;;;;;;;;;4929996;29;20504;-66
2022/03/25 04:47:48;;;;;;;24.65;12.60;;;;;;;;;;4929619;29;20043;-67
2022/03/25 04:50:14;;;;;;;30.85;13.75;;;;;;;;;;4927153;29;20159;-65
2022/03/25 04:52:40;;;;;;;33.17;13.13;;;;;;;;;;4928385;29;20047;-65
2022/03/25 04:55:06;;;;;;;29.50;12.80;;;;;;;;;;4923460;29;20047;-66
2022/03/25 04:57:32;;;;;;;26.00;13.32;;;;;;;;;;4928800;29;20142;-65
2022/03/25 04:59:59;;;;;;;28.67;12.95;;;;;;;;;;4928431;29;20051;-70
2022/03/25 05:02:26;;;;;;;31.60;13.32;;;;;;;;;;4920195;29;20056;-65
2022/03/25 05:04:55;;;;;;;30.55;13.27;;;;;;;;;;4931478;29;20118;-66
2022/03/25 05:07:21;;;;;;;26.80;13.20;;;;;;;;;;4925663;29;20055;-65
2022/03/25 05:09:47;;;;;;;30.52;13.25;;;;;;;;;;4921395;29;20363;-66
2022/03/25 05:12:13;;;;;;;32.38;13.23;;;;;;;;;;4924616;29;20054;-65
2022/03/25 05:14:40;;;;;;;24.20;13.70;;;;;;;;;;4926671;29;20044;-65
2022/03/25 05:17:07;;;;;;;28.48;13.23;;;;;;;;;;4921755;29;20094;-65
2022/03/25 05:19:33;;;;;;;31.23;13.90;;;;;;;;;;4923208;29;20138;-64
2022/03/25 05:21:59;;;;;;;23.90;13.38;;;;;;;;;;4923340;29;20051;-64
2022/03/25 05:24:26;;;;;;;30.77;12.82;;;;;;;;;;4926281;29;20062;-66
2022/03/25 05:26:53;;;;;;;24.30;13.38;;;;;;;;;;4919164;29;20072;-65
2022/03/25 05:29:20;;;;;;;30.95;13.00;;;;;;;;;;4923149;29;20778;-64
2022/03/25 05:31:46;;;;;;;29.90;13.85;;;;;;;;;;4926851;29;20043;-66
2022/03/25 05:34:12;;;;;;;31.08;13.98;;;;;;;;;;4927577;29;20111;-65
2022/03/25 05:36:38;;;;;;;23.55;13.10;;;;;;;;;;4925947;29;20070;-65
2022/03/25 05:39:05;;;;;;;28.05;12.55;;;;;;;;;;4922170;29;20052;-65
2022/03/25 05:41:32;;;;;;;25.70;12.98;;;;;;;;;;4910798;29;20961;-66
2022/03/25 05:43:58;;;;;;;29.40;13.05;;;;;;;;;;4904994;29;20088;-64
2022/03/25 05:46:24;;;;;;;32.53;13.25;;;;;;;;;;4917372;29;20172;-65
2022/03/25 05:48:50;;;;;;;37.88;13.68;;;;;;;;;;4917096;29;20054;-66
2022/03/25 05:51:16;;;;;;;28.60;12.95;;;;;;;;;;4918874;29;20410;-69
2022/03/25 05:53:42;;;;;;;28.77;12.68;;;;;;;;;;4915206;29;20051;-65
2022/03/25 05:56:09;;;;;;;29.55;12.85;;;;;;;;;;4919317;29;20509;-66
2022/03/25 05:58:36;;;;;;;34.33;12.25;;;;;;;;;;4924352;29;20844;-66
2022/03/25 06:01:04;;;;;;;34.22;12.35;;;;;;;;;;4919959;29;20060;-65
2022/03/25 06:03:33;;;;;;;31.60;11.18;;;;;;;;;;4916447;29;20666;-64
2022/03/25 06:06:04;;;;;;;30.63;11.48;;;;;;;;;;4919344;29;20059;-65
2022/03/25 06:08:30;;;;;;;31.10;11.55;;;;;;;;;;4923169;29;20568;-66
2022/03/25 06:10:59;;;;;;;36.83;11.15;;;;;;;;;;4916382;29;20062;-66
2022/03/25 06:13:26;;;;;;;32.83;11.75;;;;;;;;;;4922363;29;20052;-65
2022/03/25 06:15:53;;;;;;;28.67;11.57;;;;;;;;;;4920870;29;20147;-66
2022/03/25 06:18:19;;;;;;;29.52;12.05;;;;;;;;;;4919596;29;20160;-64
2022/03/25 06:20:45;;;;;;;32.78;12.18;;;;;;;;;;4921373;29;20168;-65
2022/03/25 06:23:11;;;;;;;37.55;11.13;;;;;;;;;;4920081;29;20068;-66
2022/03/25 06:25:37;;;;;;;33.38;11.82;;;;;;;;;;4919507;29;20218;-66
2022/03/25 06:28:07;;;;;;;31.20;12.00;;;;;;;;;;4923730;29;20056;-66
2022/03/25 06:30:36;;;;;;;35.50;10.98;;;;;;;;;;4919148;29;20092;-65
2022/03/25 06:33:10;;;;;;;38.63;11.18;;;;;;;;;;4921354;29;20576;-66
2022/03/25 06:35:38;;;;;;;26.75;10.50;;;;;;;;;;4923862;29;20055;-65
2022/03/25 06:38:06;;;;;;;30.25;11.00;;;;;;;;;;4925764;29;20060;-65
2022/03/25 06:40:33;;;;;;;38.08;11.18;;;;;;;;;;4915755;29;20853;-68
2022/03/25 06:42:59;;;;;;;29.25;10.57;;;;;;;;;;4917775;29;20453;-67
2022/03/25 06:45:26;;;;;;;34.35;10.07;;;;;;;;;;4921775;29;20392;-66
2022/03/25 06:47:52;;;;;;;25.80;11.43;;;;;;;;;;4923843;29;20055;-67
2022/03/25 06:50:21;;;;;;;32.13;11.02;;;;;;;;;;4921586;29;20043;-68
2022/03/25 06:52:47;;;;;;;30.75;12.25;;;;;;;;;;4924662;29;20455;-67
2022/03/25 06:55:14;;;;;;;25.33;11.07;;;;;;;;;;4921678;29;20055;-68
2022/03/25 06:57:40;;;;;;;38.70;11.75;;;;;;;;;;4922462;29;20047;-67
2022/03/25 07:00:11;;;;;;;35.47;10.38;;;;;;;;;;4923455;29;20055;-67
2022/03/25 07:02:41;;;;;;;27.70;10.63;;;;;;;;;;4920011;29;20585;-65
2022/03/25 07:05:10;;;;;;;29.40;11.10;;;;;;;;;;4925609;29;20462;-66
2022/03/25 07:07:37;;;;;;;26.63;10.05;;;;;;;;;;4917926;29;20134;-68
2022/03/25 07:10:04;;;;;;;25.55;10.00;;;;;;;;;;4924370;29;20689;-68
2022/03/25 07:12:31;;;;;;;28.33;9.57;;;;;;;;;;4920798;29;20070;-64
2022/03/25 07:14:57;;;;;;;19.23;9.63;;;;;;;;;;4921667;29;20055;-67
2022/03/25 07:17:23;;;;;;;25.52;10.25;;;;;;;;;;4924602;29;20075;-67
2022/03/25 07:19:49;;;;;;;24.02;10.40;;;;;;;;;;4922179;29;20054;-67
2022/03/25 07:22:15;;;;;;;28.40;9.73;;;;;;;;;;4923248;29;20147;-68
2022/03/25 07:24:41;;;;;;;31.17;9.55;;;;;;;;;;4917628;29;20056;-67
2022/03/25 07:27:07;;;;;;;26.30;9.60;;;;;;;;;;4922650;29;20455;-68
2022/03/25 07:29:33;;;;;;;25.58;9.30;;;;;;;;;;4923683;29;20386;-66
2022/03/25 07:31:58;;;;;;;49.25;10.02;;;;;;;;;;4921150;29;20051;-68
2022/03/25 07:34:25;;;;;;;36.58;10.05;;;;;;;;;;4921702;29;20052;-68
2022/03/25 07:36:50;;;;;;;28.55;9.63;;;;;;;;;;4920925;29;20675;-65
2022/03/25 07:39:17;;;;;;;27.88;10.20;;;;;;;;;;4918035;29;21534;-63
2022/03/25 07:41:43;;;;;;;21.90;8.90;;;;;;;;;;4914919;29;20047;-68
2022/03/25 07:44:08;;;;;;;23.13;8.88;;;;;;;;;;4904882;29;20099;-65
2022/03/25 07:46:34;;;;;;;29.70;9.15;;;;;;;;;;4913094;29;20302;-66
2022/03/25 07:49:00;;;;;;;23.98;9.63;;;;;;;;;;4919047;29;20379;-63
2022/03/25 07:51:26;;;;;;;27.98;9.13;;;;;;;;;;4918197;29;20490;-66
2022/03/25 07:53:52;;;;;;;26.08;9.77;;;;;;;;;;4918814;29;20073;-64
2022/03/25 07:56:18;;;;;;;26.95;9.57;;;;;;;;;;4917558;29;20089;-68
2022/03/25 07:58:44;;;;;;;32.50;9.43;;;;;;;;;;4911792;29;20074;-64
2022/03/25 08:01:10;;;;;;;31.10;10.70;;;;;;;;;;4916392;29;20059;-67
2022/03/25 08:03:36;;;;;;;28.15;9.98;;;;;;;;;;4916998;29;20136;-67
2022/03/25 08:06:03;;;;;;;32.10;9.52;;;;;;;;;;4920565;29;20271;-66
2022/03/25 08:08:29;;;;;;;28.17;8.35;;;;;;;;;;4920140;29;20548;-65
2022/03/25 08:10:56;;;;;;;27.88;9.68;;;;;;;;;;4922698;29;20143;-63
2022/03/25 08:13:23;;;;;;;26.52;10.40;;;;;;;;;;4917318;29;20052;-64
2022/03/25 08:15:49;;;;;;;25.45;9.45;;;;;;;;;;4916805;29;20048;-68
2022/03/25 08:18:16;;;;;;;25.20;9.52;;;;;;;;;;4919811;29;20428;-64
2022/03/25 08:20:44;;;;;;;25.83;9.80;;;;;;;;;;4912594;29;20055;-62
2022/03/25 08:23:13;;;;;;;27.00;10.93;;;;;;;;;;4918789;29;20054;-64
2022/03/25 08:28:25;;;;;;;22.25;11.52;;;;;;;;;;4921882;29;20793;-65
2022/03/25 08:30:51;;;;;;;22.25;11.02;;;;;;;;;;4922326;29;20372;-66
2022/03/25 08:33:18;;;;;;;22.45;11.20;;;;;;;;;;4920901;29;20050;-66
2022/03/25 08:35:44;;;;;;;36.85;11.82;;;;;;;;;;4922478;29;20490;-66
2022/03/25 08:38:12;;;;;;;33.28;11.05;;;;;;;;;;4906606;29;20150;-64
2022/03/25 08:40:40;;;;;;;25.17;10.48;;;;;;;;;;4925896;29;20324;-64
2022/03/25 08:43:06;;;;;;;24.30;11.07;;;;;;;;;;4922459;29;20059;-67
2022/03/25 08:45:33;;;;;;;28.10;10.88;;;;;;;;;;4922829;29;20051;-66
2022/03/25 08:47:59;;;;;;;30.10;11.10;;;;;;;;;;4919207;29;20051;-65
2022/03/25 08:50:26;;;;;;;28.58;11.20;;;;;;;;;;4920716;29;20419;-63
2022/03/25 08:52:53;;;;;;;26.08;10.35;;;;;;;;;;4920725;29;20048;-66
2022/03/25 08:55:20;;;;;;;25.83;11.15;;;;;;;;;;4918845;29;20071;-65
2022/03/25 08:57:49;;;;;;;29.15;11.13;;;;;;;;;;4924164;29;20556;-65
2022/03/25 09:00:17;;;;;;;27.55;11.07;;;;;;;;;;4922263;29;20070;-65
2022/03/25 09:02:45;;;;;;;30.92;9.98;;;;;;;;;;4922555;29;20079;-65
2022/03/25 09:05:12;;;;;;;31.08;9.98;;;;;;;;;;4924419;29;20084;-66
2022/03/25 09:07:39;;;;;;;23.92;9.63;;;;;;;;;;4926114;29;20055;-67
2022/03/25 09:10:09;;;;;;;24.60;9.68;;;;;;;;;;4925349;29;20517;-67
2022/03/25 09:12:36;;;;;;;30.23;9.90;;;;;;;;;;4898257;29;20537;-66
2022/03/25 09:15:04;;;;;;;24.98;9.63;;;;;;;;;;4921820;29;20142;-67
2022/03/25 09:17:30;;;;;;;24.17;9.70;;;;;;;;;;4924796;29;20067;-66
2022/03/25 09:19:57;;;;;;;25.77;8.93;;;;;;;;;;4923450;29;20051;-68
2022/03/25 09:22:23;;;;;;;31.75;9.90;;;;;;;;;;4923704;29;20145;-66
2022/03/25 09:24:49;;;;;;;32.30;9.65;;;;;;;;;;4906880;29;20081;-66
2022/03/25 09:27:15;;;;;;;24.63;9.02;;;;;;;;;;4923445;29;20509;-65
2022/03/25 09:29:41;;;;;;;26.33;9.23;;;;;;;;;;4921776;29;20413;-66
2022/03/25 09:32:08;;;;;;;24.77;9.20;;;;;;;;;;4919062;29;20177;-68
2022/03/25 09:37:21;;;;;;;29.85;9.50;;;;;;;;;;4921326;29;20063;-68
2022/03/25 09:39:48;;;;;;;24.95;9.18;;;;;;;;;;4921313;29;20062;-66
2022/03/25 09:42:15;;;;;;;24.92;8.60;;;;;;;;;;4917599;29;20047;-67
2022/03/25 09:44:42;;;;;;;32.13;8.90;;;;;;;;;;4921923;29;20273;-68
2022/03/25 09:47:10;;;;;;;25.73;7.97;;;;;;;;;;4920569;29;20051;-68
2022/03/25 09:49:40;;;;;;;27.38;8.73;;;;;;;;;;4921437;29;20052;-69
2022/03/25 09:52:07;;;;;;;26.55;8.52;;;;;;;;;;4921877;29;20064;-68
2022/03/25 09:54:34;;;;;;;24.10;8.60;;;;;;;;;;4911399;29;20063;-66
2022/03/25 09:57:01;;;;;;;29.75;8.40;;;;;;;;;;4922390;29;20461;-68
2022/03/25 09:59:27;;;;;;;28.60;8.52;;;;;;;;;;4922402;29;20058;-67
2022/03/25 10:01:53;;;;;;;26.60;9.52;;;;;;;;;;4921006;29;20055;-67
2022/03/25 10:04:42;;;;;;;25.67;8.23;;;;;;;;;;4922401;29;20499;-67
2022/03/25 10:07:19;;;;;;;23.70;8.50;;;;;;;;;;4920183;29;20079;-69
2022/03/25 10:09:47;;;;;;;33.65;8.50;;;;;;;;;;4921994;29;20466;-67
2022/03/25 10:12:24;;;;;;;30.67;8.80;;;;;;;;;;4921029;29;20437;-66
2022/03/25 10:14:52;;;;;;;22.33;7.85;;;;;;;;;;4907335;29;20047;-67
2022/03/25 10:17:19;;;;;;;27.63;8.68;;;;;;;;;;4923449;29;20048;-68
2022/03/25 10:19:52;;;;;;;23.08;8.18;;;;;;;;;;4929841;29;20039;-67
2022/03/25 10:22:19;;;;;;;27.75;8.77;;;;;;;;;;4925627;29;20103;-67
2022/03/25 10:24:52;;;;;;;35.38;9.23;;;;;;;;;;4909539;29;20052;-66
2022/03/25 10:27:23;;;;;;;20.10;7.70;;;;;;;;;;4924948;29;20059;-68
2022/03/25 10:29:50;;;;;;;25.80;8.43;;;;;;;;;;4925330;29;20067;-67
2022/03/25 10:32:23;;;;;;;28.65;8.15;;;;;;;;;;4929503;29;20111;-67
2022/03/25 10:35:04;;;;;;;19.30;8.02;;;;;;;;;;4926284;29;20080;-68
2022/03/25 10:37:30;;;;;;;22.17;7.72;;;;;;;;;;4928017;29;20091;-67
2022/03/25 10:39:56;;;;;;;34.05;9.57;;;;;;;;;;4905356;29;20428;-67
2022/03/25 10:42:22;;;;;;;27.35;8.93;;;;;;;;;;4920938;29;20090;-68
2022/03/25 10:44:48;;;;;;;20.40;8.10;;;;;;;;;;4926973;29;20048;-68
2022/03/25 10:47:22;;;;;;;25.38;9.55;;;;;;;;;;4928945;29;20059;-67
2022/03/25 10:49:48;;;;;;;;;;;;;;;;;;4927391;29;20052;-67
2022/03/25 10:52:24;;;;;;;26.15;8.05;;;;;;;;;;4928124;29;20156;-68
2022/03/25 10:55:11;;;;;;;24.38;8.50;;;;;;;;;;4910189;29;20678;-66
2022/03/25 10:58:07;;;;;;;30.80;8.73;;;;;;;;;;4926007;29;20351;-66
2022/03/25 11:00:34;;;;;;;19.38;8.57;;;;;;;;;;4911600;29;20058;-68
2022/03/25 11:03:00;;;;;;;29.63;9.13;;;;;;;;;;4923270;29;20051;-68
2022/03/25 11:05:26;;;;;;;17.77;8.02;;;;;;;;;;4927014;29;20718;-68
2022/03/25 11:07:52;;;;;;;33.05;9.05;;;;;;;;;;4925414;29;20047;-66
2022/03/25 11:10:18;;;;;;;23.80;9.80;;;;;;;;;;4927954;29;20334;-68
2022/03/25 11:12:49;;;;;;;19.83;8.70;;;;;;;;;;4925078;29;20036;-67
2022/03/25 11:15:18;;;;;;;20.58;8.75;;;;;;;;;;4924335;29;20391;-69
2022/03/25 11:17:45;;;;;;;23.73;9.30;;;;;;;;;;4924811;29;20296;-66
2022/03/25 11:20:16;;;;;;;29.73;8.52;;;;;;;;;;4919668;29;20048;-68
2022/03/25 11:22:44;;;;;;;28.08;9.13;;;;;;;;;;4919035;29;20397;-68
2022/03/25 11:25:15;;;;;;;21.80;8.65;;;;;;;;;;4922311;29;20190;-68
2022/03/25 11:27:46;;;;;;;25.60;8.35;;;;;;;;;;4920264;29;20102;-65
2022/03/25 11:30:16;;;;;;;21.52;8.32;;;;;;;;;;4926438;29;20051;-68
2022/03/25 11:33:03;;;;;;;24.52;8.88;;;;;;;;;;4925751;29;20051;-68
2022/03/25 11:35:32;;;;;;;27.88;8.27;;;;;;;;;;4923900;29;20127;-67
2022/03/25 11:38:27;;;;;;;16.85;7.65;;;;;;;;;;4923611;29;20106;-65
2022/03/25 11:40:53;;;;;;;24.95;8.40;;;;;;;;;;4894731;29;20075;-67
2022/03/25 11:43:25;;;;;;;27.65;8.82;;;;;;;;;;4905899;29;20067;-65
2022/03/25 11:46:00;;;;;;;36.83;10.50;;;;;;;;;;4887198;29;20622;-68
2022/03/25 11:48:26;;;;;;;30.77;8.90;;;;;;;;;;4910317;29;20175;-67
2022/03/25 11:50:55;;;;;;;21.83;8.55;;;;;;;;;;4922927;29;20118;-65
2022/03/25 11:53:22;;;;;;;20.73;8.77;;;;;;;;;;4927311;29;20047;-67
2022/03/25 11:56:05;;;;;;;17.88;8.40;;;;;;;;;;4922498;29;20071;-66
2022/03/25 11:58:48;;;;;;;25.90;9.15;;;;;;;;;;4905306;29;20104;-65
2022/03/25 12:01:18;;;;;;;30.08;9.00;;;;;;;;;;4919603;29;20052;-67
2022/03/25 12:03:47;;;;;;;28.60;9.43;;;;;;;;;;4920728;29;20394;-67
2022/03/25 12:06:13;;;;;;;24.73;8.93;;;;;;;;;;4923833;29;20043;-68
2022/03/25 12:09:06;;;;;;;31.27;9.52;;;;;;;;;;4921313;29;20074;-66
2022/03/25 12:11:56;;;;;;;20.13;8.23;;;;;;;;;;4921306;29;20095;-66
2022/03/25 12:14:31;;;;;;;26.20;9.05;;;;;;;;;;4912444;29;20051;-67
2022/03/25 12:16:59;;;;;;;40.03;9.48;;;;;;;;;;4919621;29;20130;-66
2022/03/25 12:19:25;;;;;;;22.63;7.88;;;;;;;;;;4916257;29;20043;-68
2022/03/25 12:21:52;;;;;;;17.90;8.52;;;;;;;;;;4919016;29;20106;-68
2022/03/25 12:24:19;;;;;;;17.58;8.38;;;;;;;;;;4926190;29;20114;-66
2022/03/25 12:26:44;;;;;;;28.88;9.00;;;;;;;;;;4923253;29;20044;-66
2022/03/25 12:29:10;;;;;;;25.52;9.02;;;;;;;;;;4922890;29;20141;-68
2022/03/25 12:31:37;;;;;;;24.60;8.02;;;;;;;;;;4917281;29;20078;-68
2022/03/25 12:34:07;;;;;;;29.75;8.80;;;;;;;;;;4925288;29;20552;-67
2022/03/25 12:36:41;;;;;;;29.80;9.15;;;;;;;;;;4919983;29;20059;-67
2022/03/25 12:39:16;;;;;;;26.58;8.93;;;;;;;;;;4927055;29;20071;-66
2022/03/25 12:41:47;;;;;;;28.85;9.65;;;;;;;;;;4921404;29;20047;-68
2022/03/25 12:44:13;;;;;;;25.85;8.60;;;;;;;;;;4914888;29;20175;-67
2022/03/25 12:46:39;;;;;;;25.63;9.88;;;;;;;;;;4921256;29;20109;-70
2022/03/25 12:49:07;;;;;;;29.95;8.85;;;;;;;;;;4924218;29;20281;-69
2022/03/25 12:51:34;;;;;;;22.02;8.75;;;;;;;;;;4920146;29;21081;-66
2022/03/25 12:54:02;;;;;;;28.33;8.45;;;;;;;;;;4922284;29;20052;-68
2022/03/25 12:56:29;;;;;;;27.60;9.35;;;;;;;;;;4906049;29;20183;-69
2022/03/25 12:58:58;;;;;;;33.33;11.27;;;;;;;;;;4922673;29;20051;-68
2022/03/25 13:01:24;;;;;;;26.10;9.85;;;;;;;;;;4910887;29;20051;-68
2022/03/25 13:03:53;;;;;;;27.65;9.90;;;;;;;;;;4905315;29;20486;-68
2022/03/25 13:06:19;;;;;;;25.25;9.50;;;;;;;;;;4920531;29;20054;-69
2022/03/25 13:08:45;;;;;;;30.10;9.45;;;;;;;;;;4921894;29;20126;-68
2022/03/25 13:11:13;;;;;;;25.48;9.50;;;;;;;;;;4922235;29;20134;-66
2022/03/25 13:13:39;;;;;;;25.00;9.20;;;;;;;;;;4920371;29;20191;-67
2022/03/25 13:16:08;;;;;;;25.77;10.23;;;;;;;;;;4918504;29;20418;-67
2022/03/25 13:18:39;;;;;;;29.60;9.25;;;;;;;;;;4920971;29;20478;-70
2022/03/25 13:21:07;;;;;;;34.40;10.55;;;;;;;;;;4918719;29;20163;-69
2022/03/25 13:23:33;;;;;;;30.80;9.90;;;;;;;;;;4921459;29;20051;-68
2022/03/25 13:26:05;;;;;;;40.38;11.35;;;;;;;;;;4918362;29;20126;-70
2022/03/25 13:28:36;;;;;;;36.00;10.48;;;;;;;;;;4920723;29;20497;-69
2022/03/25 13:31:11;;;;;;;34.85;10.82;;;;;;;;;;4914363;29;20355;-66
2022/03/25 13:33:47;;;;;;;30.00;9.65;;;;;;;;;;4920991;29;20056;-68
2022/03/25 13:36:18;;;;;;;40.50;10.90;;;;;;;;;;4918960;29;21418;-68
2022/03/25 13:38:51;;;;;;;30.80;9.35;;;;;;;;;;4900687;29;20075;-67
2022/03/25 13:41:21;;;;;;;32.95;9.90;;;;;;;;;;4922550;29;20055;-68
2022/03/25 13:43:52;;;;;;;29.77;9.93;;;;;;;;;;4916844;29;20098;-70
2022/03/25 13:46:24;;;;;;;31.92;10.07;;;;;;;;;;4916784;29;20087;-67
2022/03/25 13:49:04;;;;;;;42.97;11.02;;;;;;;;;;4925991;29;20135;-68
2022/03/25 13:51:31;;;;;;;30.52;11.05;;;;;;;;;;4917087;29;20129;-69
2022/03/25 13:53:59;;;;;;;37.67;10.93;;;;;;;;;;4921954;29;20102;-66
2022/03/25 13:56:26;;;;;;;31.52;10.70;;;;;;;;;;4922419;29;20073;-66
2022/03/25 13:58:56;;;;;;;38.38;13.43;;;;;;;;;;4922677;29;20164;-68
2022/03/25 14:01:46;;;;;;;32.20;11.63;;;;;;;;;;4921163;29;20985;-67
2022/03/25 14:04:22;;;;;;;37.60;11.68;;;;;;;;;;4926926;29;20252;-67
2022/03/25 14:07:01;;;;;;;31.08;11.50;;;;;;;;;;4922664;29;20047;-69
2022/03/25 14:09:33;;;;;;;33.08;11.65;;;;;;;;;;4924003;29;20048;-71
2022/03/25 14:12:19;;;;;;;30.83;11.75;;;;;;;;;;4920837;29;20127;-68
2022/03/25 14:14:51;;;;;;;37.67;11.95;;;;;;;;;;4924983;29;20063;-67
2022/03/25 14:17:17;;;;;;;30.55;11.35;;;;;;;;;;4922410;29;20067;-69
2022/03/25 14:19:42;;;;;;;36.83;12.57;;;;;;;;;;4926645;29;20455;-70
2022/03/25 14:22:09;;;;;;;35.22;12.35;;;;;;;;;;4920699;29;20047;-69
2022/03/25 14:24:38;;;;;;;39.30;12.93;;;;;;;;;;4924155;29;20864;-68
2022/03/25 14:27:10;;;;;;;52.35;13.65;;;;;;;;;;4921522;29;20702;-69
2022/03/25 14:29:37;;;;;;;36.97;12.45;;;;;;;;;;4923796;29;20048;-69
2022/03/25 14:32:04;;;;;;;40.90;12.20;;;;;;;;;;4919145;29;20052;-70
2022/03/25 14:34:31;;;;;;;37.03;11.82;;;;;;;;;;4924398;29;20146;-70